Terminal Aerodrome Forecast
Issued by NWS

Home | Current Version | Previous Version | Text Only | Print | Product List | Glossary On
Versions: 1 2 3 4 5 6 7 8 9 10 11 12 13 14 15 16 17 18 19 20 21
000
FTUS46 KOTX 191804 CCA
TAFMWH
TAF COR
KMWH 191804Z 1918/2018 14004KT 6SM -SHRA BR SCT004 BKN025 OVC040
     FM192100 19008KT P6SM BKN060
     FM200000 19005KT P6SM SCT060 BKN120
     FM200900 13004KT P6SM OVC080
     FM201200 06006KT 5SM -RASN BKN025 OVC050=

USA.gov is the U.S. government's official web portal to all federal, state and local government web resources and services.